In Rescue
 
Open Full Screen Window  High Contrast Mode
Wind Gusting 00 knots
05
March 04, 2021 3:07 AM CST
Weather Information
Wind Direction
  100 °
Wind Speed
  05 kt (6 mph)
Wind Gust
  00 kt (0 mph)
Altimeter
30.22 in
Visibility
10 SM
Temperature
02° C
36° F
Dewpoint
-04° C
25° F
Humidity
65%
1hr Rain Fall
00.00 in.
24hr Rain Fall
00.00 in.
Sky Condition
Clear
VFR

METAR KSGS 040907Z AUTO 10005KT 10SM CLR 02/M04 A3022 RMK AO2 T00201042

FAA Disclaimer: The data displayed is for advisory purposes only and is not to be used for flight planning or operations.